Time;durP1;ratioP1;P1;durP2;ratioP2;P2;SDS_P1;SDS_P2;PMS_P1;PMS_P2;Temp;Humidity;BMP_temperature;BMP_pressure;BME280_temperature;BME280_humidity;BME280_pressure;Samples;Min_cycle;Max_cycle;Signal;HPM_P1;HPM_P2
2024/03/24 00:00:10;;;;;;;7.70;2.73;;;;;4.40;100197.00;;;;10288029;28;20217;-78
2024/03/24 00:05:14;;;;;;;4.97;2.67;;;;;4.40;100197.00;;;;10293576;28;20223;-78
2024/03/24 00:10:15;;;;;;;6.63;2.67;;;;;4.50;100209.00;;;;10295387;28;20230;-78
2024/03/24 00:15:16;;;;;;;5.10;3.23;;;;;4.60;100204.00;;;;10293301;28;20220;-78
2024/03/24 00:20:17;;;;;;;7.87;3.30;;;;;4.70;100201.00;;;;10298319;28;20227;-78
2024/03/24 00:25:18;;;;;;;6.47;3.00;;;;;4.80;100195.00;;;;10282775;28;20311;-80
2024/03/24 00:30:19;;;;;;;4.97;2.40;;;;;4.70;100196.00;;;;10285903;28;20227;-79
2024/03/24 00:35:21;;;;;;;7.27;2.87;;;;;4.70;100184.00;;;;10278461;28;20245;-79
2024/03/24 00:40:23;;;;;;;9.30;3.30;;;;;4.70;100188.00;;;;10281787;28;20744;-79
2024/03/24 00:45:24;;;;;;;8.80;3.20;;;;;4.80;100181.00;;;;10277980;28;20224;-80
2024/03/24 00:50:25;;;;;;;12.03;3.30;;;;;4.80;100169.00;;;;10285868;28;20226;-80
2024/03/24 00:55:26;;;;;;;9.47;3.00;;;;;4.80;100160.00;;;;10280688;28;20232;-78
2024/03/24 01:00:28;;;;;;;6.77;2.97;;;;;4.80;100165.00;;;;10280326;28;20219;-76
2024/03/24 01:05:29;;;;;;;6.33;3.27;;;;;4.70;100159.00;;;;10289915;28;20299;-77
2024/03/24 01:10:30;;;;;;;5.27;2.73;;;;;4.70;100150.00;;;;10281123;28;20224;-79
2024/03/24 01:15:31;;;;;;;9.10;3.20;;;;;4.70;100148.00;;;;10292311;28;20740;-77
2024/03/24 01:20:33;;;;;;;5.73;2.80;;;;;4.70;100136.00;;;;10277816;28;20833;-78
2024/03/24 01:25:34;;;;;;;10.90;3.27;;;;;4.70;100117.00;;;;10298016;28;20243;-78
2024/03/24 01:30:35;;;;;;;9.63;2.90;;;;;4.70;100118.00;;;;10274498;28;20318;-78
2024/03/24 01:35:36;;;;;;;7.43;2.57;;;;;4.80;100099.00;;;;10301279;28;20635;-77
2024/03/24 01:40:37;;;;;;;8.57;3.07;;;;;4.70;100095.00;;;;10295206;28;20248;-78
2024/03/24 01:45:38;;;;;;;9.00;3.20;;;;;4.70;100075.00;;;;10271801;28;20212;-79
2024/03/24 01:50:40;;;;;;;11.20;2.67;;;;;4.70;100062.00;;;;10275859;28;20224;-78
2024/03/24 01:55:41;;;;;;;5.87;3.10;;;;;4.70;100053.00;;;;10282458;28;20298;-79
2024/03/24 02:00:45;;;;;;;8.37;2.60;;;;;4.70;100045.00;;;;10265194;28;20280;-79
2024/03/24 02:05:46;;;;;;;10.17;3.57;;;;;4.60;100034.00;;;;10276954;28;20856;-78
2024/03/24 02:10:47;;;;;;;8.33;3.40;;;;;4.50;100036.00;;;;10274963;28;20895;-78
2024/03/24 02:15:52;;;;;;;9.13;2.60;;;;;4.40;100044.00;;;;10274665;28;20859;-78
2024/03/24 02:20:54;;;;;;;8.37;2.60;;;;;4.40;100049.00;;;;10284974;28;20312;-79
2024/03/24 02:25:55;;;;;;;10.33;2.43;;;;;4.40;100037.00;;;;10270082;28;20224;-78
2024/03/24 02:30:56;;;;;;;16.53;2.90;;;;;4.50;100029.00;;;;10278000;28;20255;-79
2024/03/24 02:35:57;;;;;;;8.83;2.80;;;;;4.50;100020.00;;;;10278443;28;20243;-78
2024/03/24 02:40:58;;;;;;;13.93;3.47;;;;;4.60;100025.00;;;;10276012;28;20227;-80
2024/03/24 02:45:59;;;;;;;9.43;3.10;;;;;4.70;100027.00;;;;10278616;28;20768;-79
2024/03/24 02:51:01;;;;;;;9.97;3.07;;;;;4.70;100020.00;;;;10270195;28;20228;-79
2024/03/24 02:56:03;;;;;;;6.57;2.87;;;;;4.80;100010.00;;;;10279791;28;20666;-78
2024/03/24 03:01:04;;;;;;;9.73;3.07;;;;;4.80;100009.00;;;;10281247;28;20216;-78
2024/03/24 03:06:05;;;;;;;11.43;3.23;;;;;4.70;100000.00;;;;10261478;28;20219;-80
2024/03/24 03:11:07;;;;;;;5.73;2.17;;;;;4.70;99998.00;;;;10267304;28;20224;-78
2024/03/24 03:16:08;;;;;;;7.33;2.90;;;;;4.70;100009.00;;;;10302928;28;20224;-80
2024/03/24 03:21:09;;;;;;;7.20;2.90;;;;;4.80;100011.00;;;;10272111;28;20234;-79
2024/03/24 03:26:10;;;;;;;12.67;2.73;;;;;4.80;99994.00;;;;10287240;28;20298;-79
2024/03/24 03:31:12;;;;;;;5.93;2.20;;;;;4.80;99997.00;;;;10271320;28;20964;-79
2024/03/24 03:36:13;;;;;;;8.57;2.73;;;;;4.90;99995.00;;;;10274977;28;20231;-79
2024/03/24 03:41:14;;;;;;;7.80;3.43;;;;;4.90;99990.00;;;;10257059;28;20258;-79
2024/03/24 03:46:16;;;;;;;8.87;2.97;;;;;4.90;99983.00;;;;10265817;28;20256;-80
2024/03/24 03:51:19;;;;;;;12.67;3.10;;;;;4.90;99993.00;;;;10283158;28;20388;-79
2024/03/24 03:56:20;;;;;;;16.27;3.20;;;;;5.00;99982.00;;;;10283285;28;20216;-79
2024/03/24 04:01:21;;;;;;;12.27;2.43;;;;;5.00;99987.00;;;;10265637;28;20235;-80
2024/03/24 04:06:22;;;;;;;12.33;2.90;;;;;5.00;99989.00;;;;10281779;28;20315;-77
2024/03/24 04:11:24;;;;;;;13.50;3.87;;;;;5.10;99989.00;;;;10280175;28;21045;-82
2024/03/24 04:16:26;;;;;;;13.93;3.97;;;;;5.10;99990.00;;;;10283770;28;20224;-79
2024/03/24 04:21:27;;;;;;;8.90;3.43;;;;;5.20;99984.00;;;;10280729;28;20311;-78
2024/03/24 04:26:28;;;;;;;12.30;3.20;;;;;5.20;99986.00;;;;10268373;28;20224;-78
2024/03/24 04:31:29;;;;;;;14.20;2.97;;;;;5.20;99972.00;;;;10305136;28;20696;-79
2024/03/24 04:36:30;;;;;;;12.27;3.43;;;;;5.20;99978.00;;;;10283232;28;20302;-79
2024/03/24 04:41:32;;;;;;;12.77;3.57;;;;;5.30;99988.00;;;;10276646;28;20259;-81
2024/03/24 04:46:34;;;;;;;13.93;3.70;;;;;5.30;100004.00;;;;10271609;28;20216;-82
2024/03/24 04:51:35;;;;;;;11.60;3.40;;;;;5.20;100008.00;;;;10278249;28;20573;-83
2024/03/24 04:56:37;;;;;;;13.57;3.40;;;;;5.10;100000.00;;;;10259300;28;20216;-82
2024/03/24 05:01:38;;;;;;;10.63;3.20;;;;;5.00;100007.00;;;;10280312;28;20362;-82
2024/03/24 05:06:39;;;;;;;11.67;2.97;;;;;4.90;99991.00;;;;10279978;28;20242;-81
2024/03/24 05:11:41;;;;;;;19.30;3.53;;;;;4.90;99984.00;;;;10267419;28;20298;-80
2024/03/24 05:16:42;;;;;;;11.07;3.47;;;;;4.90;99991.00;;;;10279454;28;20919;-81
2024/03/24 05:21:44;;;;;;;10.33;3.50;;;;;4.90;100000.00;;;;10265503;28;20303;-80
2024/03/24 05:26:45;;;;;;;11.47;3.27;;;;;5.00;100021.00;;;;10278672;28;20275;-80
2024/03/24 05:31:57;;;;;;;13.33;4.43;;;;;5.00;100023.00;;;;10271687;28;20373;-80
2024/03/24 05:36:59;;;;;;;12.23;3.47;;;;;4.90;100017.00;;;;10279335;28;20316;-81
2024/03/24 05:42:02;;;;;;;11.47;3.47;;;;;5.00;100014.00;;;;10286902;28;20223;-81
2024/03/24 05:47:03;;;;;;;16.27;3.63;;;;;5.00;100001.00;;;;10289487;28;20218;-81
2024/03/24 05:52:05;;;;;;;10.77;3.10;;;;;5.10;100006.00;;;;10282096;28;20246;-78
2024/03/24 05:57:06;;;;;;;11.37;3.67;;;;;5.20;100004.00;;;;10266016;28;20246;-78
2024/03/24 06:02:07;;;;;;;10.40;3.07;;;;;5.30;100012.00;;;;10279496;28;20258;-79
2024/03/24 06:07:10;;;;;;;12.10;3.97;;;;;5.40;100010.00;;;;10280947;28;20719;-78
2024/03/24 06:12:11;;;;;;;7.73;3.30;;;;;5.60;100005.00;;;;10255381;28;20647;-77
2024/03/24 06:17:12;;;;;;;9.77;2.73;;;;;5.60;100021.00;;;;10261477;28;20270;-79
2024/03/24 06:22:14;;;;;;;9.70;3.23;;;;;5.60;100036.00;;;;10274321;28;20678;-78
2024/03/24 06:27:15;;;;;;;12.77;3.27;;;;;5.60;100029.00;;;;10252386;28;20247;-79
2024/03/24 06:32:16;;;;;;;10.13;2.77;;;;;5.60;100040.00;;;;10263809;28;20697;-80
2024/03/24 06:37:17;;;;;;;13.70;3.37;;;;;5.70;100032.00;;;;10267346;28;20271;-80
2024/03/24 06:42:20;;;;;;;9.07;3.50;;;;;5.80;100042.00;;;;10288669;28;20302;-79
2024/03/24 06:47:21;;;;;;;11.87;3.83;;;;;6.00;100038.00;;;;10286892;28;20777;-80
2024/03/24 06:52:22;;;;;;;7.73;3.40;;;;;6.20;100032.00;;;;10284347;28;20227;-80
2024/03/24 06:57:23;;;;;;;11.97;3.40;;;;;6.00;100041.00;;;;10283847;28;20598;-79
2024/03/24 07:02:24;;;;;;;12.30;3.20;;;;;5.90;100036.00;;;;10285520;28;20768;-81
2024/03/24 07:07:25;;;;;;;15.03;4.07;;;;;5.90;100036.00;;;;10262461;28;20311;-82
2024/03/24 07:12:26;;;;;;;14.57;4.10;;;;;6.20;100047.00;;;;10291615;28;20307;-81
2024/03/24 07:17:27;;;;;;;16.23;4.03;;;;;6.20;100052.00;;;;10282539;28;21181;-81
2024/03/24 07:22:29;;;;;;;8.87;3.50;;;;;6.50;100047.00;;;;10267642;28;20321;-79
2024/03/24 07:27:30;;;;;;;20.10;4.67;;;;;6.90;100056.00;;;;10280089;28;20221;-81
2024/03/24 07:32:31;;;;;;;11.20;3.73;;;;;7.70;100070.00;;;;10310934;28;20251;-82
2024/03/24 07:37:33;;;;;;;9.87;3.30;;;;;8.40;100079.00;;;;10264746;28;20797;-80
2024/03/24 07:42:34;;;;;;;16.07;3.70;;;;;7.90;100087.00;;;;10297905;28;20254;-80
2024/03/24 07:47:35;;;;;;;7.83;3.63;;;;;7.70;100089.00;;;;10277347;28;20223;-80
2024/03/24 07:52:37;;;;;;;10.03;3.47;;;;;7.90;100085.00;;;;10258061;28;20208;-80
2024/03/24 07:57:38;;;;;;;7.40;2.60;;;;;8.40;100090.00;;;;10281044;28;20216;-80
2024/03/24 08:02:39;;;;;;;8.27;2.70;;;;;9.00;100093.00;;;;10274507;28;20252;-80
2024/03/24 08:07:41;;;;;;;13.07;3.50;;;;;8.90;100102.00;;;;10268135;28;20231;-80
2024/03/24 08:12:42;;;;;;;8.67;3.40;;;;;9.10;100105.00;;;;10279413;28;20231;-78
2024/03/24 08:17:43;;;;;;;12.60;3.63;;;;;9.50;100111.00;;;;10277050;28;20311;-78
2024/03/24 08:22:44;;;;;;;10.33;3.87;;;;;9.60;100097.00;;;;10293485;28;20641;-80
2024/03/24 08:27:45;;;;;;;10.73;3.27;;;;;10.10;100094.00;;;;10266595;28;20254;-78
2024/03/24 08:32:47;;;;;;;9.70;3.17;;;;;9.70;100105.00;;;;10282773;28;20674;-78
2024/03/24 08:37:49;;;;;;;18.03;3.40;;;;;9.60;100117.00;;;;10280881;28;20327;-78
2024/03/24 08:42:50;;;;;;;13.90;4.50;;;;;9.70;100107.00;;;;10276865;28;20236;-78
2024/03/24 08:47:51;;;;;;;11.60;3.70;;;;;10.00;100116.00;;;;10273056;28;20894;-78
2024/03/24 08:52:52;;;;;;;14.00;3.77;;;;;10.00;100119.00;;;;10278903;28;20227;-78
2024/03/24 08:57:53;;;;;;;12.93;4.23;;;;;10.00;100131.00;;;;10292604;28;20308;-79
2024/03/24 09:02:55;;;;;;;9.67;3.17;;;;;10.20;100128.00;;;;10278286;28;20314;-78
2024/03/24 09:07:56;;;;;;;12.30;3.23;;;;;10.90;100126.00;;;;10296129;28;20244;-80
2024/03/24 09:12:57;;;;;;;14.40;3.30;;;;;10.90;100122.00;;;;10293617;28;20307;-78
2024/03/24 09:17:58;;;;;;;10.67;2.80;;;;;10.70;100118.00;;;;10279353;28;20638;-79
2024/03/24 09:22:59;;;;;;;11.50;3.00;;;;;10.40;100127.00;;;;10279609;28;20266;-81
2024/03/24 09:28:01;;;;;;;7.80;3.10;;;;;10.60;100120.00;;;;10259717;28;20223;-79
2024/03/24 09:33:03;;;;;;;7.70;3.17;;;;;11.50;100117.00;;;;10261955;28;20231;-81
2024/03/24 09:38:04;;;;;;;10.37;3.50;;;;;11.70;100127.00;;;;10301416;28;20251;-81
2024/03/24 09:43:06;;;;;;;10.50;3.00;;;;;11.40;100125.00;;;;10274536;28;20911;-82
2024/03/24 09:48:11;;;;;;;11.47;3.10;;;;;13.20;100117.00;;;;10291993;28;20220;-80
2024/03/24 09:53:15;;;;;;;8.87;2.70;;;;;12.70;100117.00;;;;10279611;28;20220;-81
2024/03/24 09:58:20;;;;;;;9.10;3.37;;;;;11.90;100110.00;;;;10278636;28;20248;-79
2024/03/24 10:03:22;;;;;;;12.73;3.20;;;;;10.40;100115.00;;;;10281955;28;20803;-81
2024/03/24 10:08:33;;;;;;;10.27;3.10;;;;;9.20;100098.00;;;;10275927;28;20594;-81
2024/03/24 10:13:43;;;;;;;7.70;3.07;;;;;8.40;100149.00;;;;10277761;28;20219;-79
2024/03/24 10:18:44;;;;;;;13.10;3.20;;;;;8.50;100174.00;;;;10276350;28;20321;-80
2024/03/24 10:23:46;;;;;;;10.40;4.30;;;;;8.70;100165.00;;;;10262745;28;20238;-79
2024/03/24 10:28:51;;;;;;;9.73;3.23;;;;;9.30;100167.00;;;;10287843;28;20270;-78
2024/03/24 10:33:52;;;;;;;12.10;3.93;;;;;9.40;100171.00;;;;10293264;28;20253;-78
2024/03/24 10:38:53;;;;;;;9.60;4.43;;;;;10.20;100172.00;;;;10280452;28;20238;-79
2024/03/24 10:43:55;;;;;;;12.13;2.97;;;;;11.90;100153.00;;;;10293335;28;20728;-78
2024/03/24 10:48:58;;;;;;;7.57;2.60;;;;;12.90;100159.00;;;;10273442;28;20903;-79
2024/03/24 10:54:03;;;;;;;9.93;3.10;;;;;13.20;100157.00;;;;10289845;28;20270;-79
2024/03/24 10:59:07;;;;;;;7.55;2.55;;;;;13.30;100159.00;;;;10290903;28;20235;-77
2024/03/24 11:04:13;;;;;;;6.90;2.47;;;;;12.00;100162.00;;;;10286794;28;20231;-78
2024/03/24 11:09:14;;;;;;;15.73;3.40;;;;;12.60;100132.00;;;;10287492;28;21202;-78
2024/03/24 11:14:16;;;;;;;7.47;2.50;;;;;12.90;100142.00;;;;10274994;28;20583;-77
2024/03/24 11:19:26;;;;;;;9.73;2.93;;;;;11.80;100153.00;;;;10275994;28;20231;-77
2024/03/24 11:24:29;;;;;;;7.07;3.20;;;;;11.60;100163.00;;;;10281422;28;20685;-78
2024/03/24 11:29:45;;;;;;;8.10;2.73;;;;;12.50;100146.00;;;;10262994;28;20220;-77
2024/03/24 11:34:54;;;;;;;7.10;2.60;;;;;12.20;100152.00;;;;10302984;28;20251;-78
2024/03/24 11:39:55;;;;;;;8.87;2.67;;;;;11.30;100161.00;;;;10293035;28;20239;-78
2024/03/24 11:45:16;;;;;;;9.97;2.93;;;;;11.90;100149.00;;;;10293763;28;20315;-78
2024/03/24 11:50:18;;;;;;;7.43;2.47;;;;;13.20;100135.00;;;;10276751;28;20708;-79
2024/03/24 11:55:20;;;;;;;9.40;3.00;;;;;12.90;100160.00;;;;10250095;28;20227;-82
2024/03/24 12:00:22;;;;;;;8.33;2.47;;;;;12.30;100161.00;;;;10304751;28;20686;-79
2024/03/24 12:05:23;;;;;;;5.67;2.00;;;;;11.40;100169.00;;;;10267482;28;20231;-81
2024/03/24 12:10:25;;;;;;;10.07;2.33;;;;;11.30;100169.00;;;;10298239;28;20243;-81
2024/03/24 12:15:26;;;;;;;5.70;2.03;;;;;11.00;100169.00;;;;10300660;28;20211;-78
2024/03/24 12:20:27;;;;;;;10.10;1.87;;;;;10.50;100176.00;;;;10286499;28;20226;-79
2024/03/24 12:25:29;;;;;;;3.93;1.80;;;;;10.00;100151.00;;;;10296123;28;20235;-76
2024/03/24 12:30:30;;;;;;;5.33;2.47;;;;;9.90;100192.00;;;;10291995;28;20224;-77
2024/03/24 12:35:31;;;;;;;9.77;2.57;;;;;9.60;100202.00;;;;10285269;28;20357;-78
2024/03/24 12:40:32;;;;;;;7.57;2.13;;;;;9.60;100170.00;;;;10297583;28;20228;-79
2024/03/24 12:45:34;;;;;;;10.90;2.33;;;;;9.40;100202.00;;;;10288976;28;20287;-78
2024/03/24 12:50:35;;;;;;;4.90;1.73;;;;;9.50;100199.00;;;;10282455;28;20848;-79
2024/03/24 12:55:48;;;;;;;11.77;2.63;;;;;9.60;100204.00;;;;10310572;28;20227;-79
2024/03/24 13:00:50;;;;;;;6.07;2.33;;;;;9.80;100211.00;;;;10285940;28;20330;-78
2024/03/24 13:05:52;;;;;;;6.80;1.70;;;;;9.60;100207.00;;;;10267418;28;20231;-78
2024/03/24 13:10:54;;;;;;;9.53;2.83;;;;;9.40;100191.00;;;;10326686;28;20232;-79
2024/03/24 13:15:57;;;;;;;6.73;2.07;;;;;8.80;100211.00;;;;10292873;28;20219;-79
2024/03/24 13:21:03;;;;;;;9.37;2.90;;;;;9.00;100231.00;;;;10320875;28;20243;-79
2024/03/24 13:26:06;;;;;;;7.13;2.30;;;;;9.80;100223.00;;;;10284296;28;20321;-78
2024/03/24 13:31:07;;;;;;;7.57;2.43;;;;;9.80;100235.00;;;;10302509;28;20259;-80
2024/03/24 13:36:18;;;;;;;6.27;2.57;;;;;9.90;100231.00;;;;10292212;28;20227;-79
2024/03/24 13:41:31;;;;;;;4.97;2.20;;;;;9.30;100210.00;;;;10302265;28;20223;-79
2024/03/24 13:46:33;;;;;;;6.70;2.97;;;;;8.60;100250.00;;;;10304177;28;20224;-80
2024/03/24 13:51:36;;;;;;;7.80;2.80;;;;;8.70;100257.00;;;;10265278;28;20247;-78
2024/03/24 13:56:37;;;;;;;10.57;2.60;;;;;8.90;100264.00;;;;10295774;28;20223;-79
2024/03/24 14:01:38;;;;;;;8.23;3.37;;;;;9.00;100266.00;;;;10278320;28;20224;-79
2024/03/24 14:06:39;;;;;;;8.30;3.30;;;;;9.30;100285.00;;;;10290471;28;20247;-81
2024/03/24 14:11:41;;;;;;;10.93;2.80;;;;;9.00;100276.00;;;;10272808;28;20219;-79
2024/03/24 14:17:01;;;;;;;11.73;3.17;;;;;9.00;100268.00;;;;10282332;28;20251;-78
2024/03/24 14:22:13;;;;;;;9.20;2.70;;;;;9.50;100262.00;;;;10310805;28;20370;-77
2024/03/24 14:27:14;;;;;;;6.33;2.37;;;;;9.50;100276.00;;;;10301238;28;20250;-79
2024/03/24 15:58:13;;;;;;;10.50;3.40;;;;;8.50;100297.00;;;;10460458;27;1816188;-77
2024/03/24 16:03:14;;;;;;;12.00;3.50;;;;;8.40;100309.00;;;;10415497;28;20229;-77
2024/03/24 16:08:14;;;;;;;10.70;3.03;;;;;8.40;100308.00;;;;10406517;28;20225;-78
2024/03/24 16:30:42;;;;;;;11.40;3.57;;;;;8.50;100335.00;;;;10378183;27;20368;-82
2024/03/24 16:35:45;;;;;;;9.70;3.40;;;;;8.10;100335.00;;;;10372177;28;20225;-81
2024/03/24 16:40:46;;;;;;;6.70;3.07;;;;;7.90;100339.00;;;;10337465;28;20222;-82
2024/03/24 16:45:47;;;;;;;9.87;3.30;;;;;7.90;100334.00;;;;10353924;28;20249;-82
2024/03/24 16:50:49;;;;;;;12.10;3.83;;;;;7.80;100341.00;;;;10337969;28;20229;-81
2024/03/24 16:55:50;;;;;;;11.63;3.30;;;;;7.70;100357.00;;;;10339563;28;20907;-81
2024/03/24 17:00:51;;;;;;;9.87;3.33;;;;;7.70;100359.00;;;;10353803;28;20802;-83
2024/03/24 17:05:52;;;;;;;8.63;3.30;;;;;7.70;100355.00;;;;10354593;28;20262;-81
2024/03/24 17:10:53;;;;;;;6.63;2.40;;;;;7.70;100346.00;;;;10359880;28;20230;-82
2024/03/24 17:15:54;;;;;;;5.33;2.83;;;;;7.70;100353.00;;;;10355055;28;20355;-83
2024/03/24 17:20:55;;;;;;;6.97;2.73;;;;;7.80;100362.00;;;;10359902;28;20230;-81
2024/03/24 17:25:56;;;;;;;8.83;2.87;;;;;7.70;100364.00;;;;10371056;28;20233;-81
2024/03/24 17:30:57;;;;;;;5.10;2.67;;;;;7.70;100367.00;;;;10346850;28;20226;-78
2024/03/24 17:36:02;;;;;;;9.33;2.50;;;;;7.60;100361.00;;;;10324781;28;21134;-78
2024/03/24 17:41:04;;;;;;;6.83;2.57;;;;;7.50;100371.00;;;;10306832;28;20237;-78
2024/03/24 17:46:05;;;;;;;7.40;3.30;;;;;7.30;100375.00;;;;10325299;28;20234;-78
2024/03/24 17:51:07;;;;;;;7.83;2.80;;;;;7.10;100368.00;;;;10307012;28;20230;-78
2024/03/24 17:56:08;;;;;;;5.87;2.80;;;;;6.80;100373.00;;;;10324136;28;21884;-78
2024/03/24 18:01:09;;;;;;;8.53;2.73;;;;;6.70;100378.00;;;;10319564;28;20234;-78
2024/03/24 18:06:11;;;;;;;10.43;3.63;;;;;6.70;100392.00;;;;10321805;28;21104;-78
2024/03/24 18:11:12;;;;;;;8.43;3.83;;;;;6.60;100398.00;;;;10323965;28;20230;-76
2024/03/24 18:16:13;;;;;;;9.77;4.03;;;;;6.40;100393.00;;;;10308025;28;21896;-77
2024/03/24 18:21:15;;;;;;;17.57;4.17;;;;;6.20;100395.00;;;;10345899;28;20323;-77
2024/03/24 18:26:16;;;;;;;8.17;4.10;;;;;6.10;100387.00;;;;10344151;28;20265;-77
2024/03/24 18:31:17;;;;;;;7.57;3.73;;;;;6.00;100398.00;;;;10349898;28;21152;-78
2024/03/24 18:36:20;;;;;;;9.47;3.50;;;;;6.00;100408.00;;;;10399466;28;20248;-78
2024/03/24 18:41:21;;;;;;;7.63;4.43;;;;;6.00;100408.00;;;;10350417;28;20327;-78
2024/03/24 18:46:24;;;;;;;7.47;3.83;;;;;6.10;100407.00;;;;10329639;28;20221;-78
2024/03/24 18:51:26;;;;;;;4.77;3.60;;;;;6.10;100410.00;;;;10329391;28;20238;-81
2024/03/24 18:56:28;;;;;;;6.37;3.77;;;;;6.00;100405.00;;;;10353933;28;20234;-81
2024/03/24 19:01:29;;;;;;;14.23;5.00;;;;;6.00;100403.00;;;;10336908;28;20229;-81
2024/03/24 19:06:31;;;;;;;8.33;4.70;;;;;6.00;100404.00;;;;10335732;28;20228;-81
2024/03/24 19:11:32;;;;;;;10.17;4.47;;;;;5.90;100414.00;;;;10341971;28;21978;-81
2024/03/24 19:16:33;;;;;;;8.43;4.63;;;;;5.90;100423.00;;;;10341819;28;20238;-81
2024/03/24 19:21:34;;;;;;;6.67;4.90;;;;;5.80;100420.00;;;;10342509;28;20225;-81
2024/03/24 19:26:36;;;;;;;10.47;4.80;;;;;5.80;100410.00;;;;10343215;28;20238;-81
2024/03/24 19:31:37;;;;;;;10.03;6.20;;;;;5.70;100416.00;;;;10339464;28;20242;-81
2024/03/24 19:36:38;;;;;;;10.80;5.00;;;;;5.60;100401.00;;;;10374923;28;20273;-80
2024/03/24 19:41:39;;;;;;;9.00;4.80;;;;;5.50;100392.00;;;;10334117;28;20237;-82
2024/03/24 19:46:42;;;;;;;12.20;4.97;;;;;5.40;100392.00;;;;10343895;28;20269;-81
2024/03/24 19:51:43;;;;;;;13.77;4.80;;;;;5.40;100384.00;;;;10341731;28;20232;-81
2024/03/24 19:56:44;;;;;;;8.87;4.50;;;;;5.40;100388.00;;;;10357221;28;21604;-81
2024/03/24 20:01:45;;;;;;;6.70;4.17;;;;;5.20;100390.00;;;;10342354;28;20229;-81
2024/03/24 20:06:46;;;;;;;10.77;4.70;;;;;5.10;100389.00;;;;10358606;28;20963;-81
2024/03/24 20:11:48;;;;;;;11.23;5.17;;;;;5.00;100392.00;;;;10324179;28;20781;-81
2024/03/24 20:16:49;;;;;;;12.10;4.67;;;;;5.00;100405.00;;;;10341151;28;20283;-81
2024/03/24 20:21:50;;;;;;;6.67;4.20;;;;;5.00;100405.00;;;;10346212;28;20225;-80
2024/03/24 20:26:52;;;;;;;12.03;4.33;;;;;5.00;100402.00;;;;10402912;28;20229;-80
2024/03/24 20:31:53;;;;;;;6.97;3.97;;;;;5.00;100403.00;;;;10411045;28;20301;-80
2024/03/24 20:36:55;;;;;;;11.60;3.80;;;;;5.00;100405.00;;;;10399082;28;20218;-80
2024/03/24 20:41:56;;;;;;;11.37;3.73;;;;;5.00;100409.00;;;;10401992;28;20252;-80
2024/03/24 20:46:57;;;;;;;12.33;3.87;;;;;5.00;100408.00;;;;10399206;28;20997;-80
2024/03/24 20:51:58;;;;;;;10.00;3.33;;;;;5.00;100417.00;;;;10393753;28;20218;-80
2024/03/24 20:56:59;;;;;;;12.57;3.53;;;;;5.00;100417.00;;;;10395419;28;20250;-80
2024/03/24 21:02:00;;;;;;;13.80;3.83;;;;;5.00;100413.00;;;;10425378;28;20275;-80
2024/03/24 21:07:02;;;;;;;12.20;4.47;;;;;4.90;100405.00;;;;10410867;28;20297;-80
2024/03/24 21:12:04;;;;;;;10.70;5.13;;;;;4.80;100410.00;;;;10406886;28;20252;-79
2024/03/24 21:17:06;;;;;;;11.43;4.80;;;;;4.70;100411.00;;;;10414518;28;20230;-79
2024/03/24 21:22:07;;;;;;;14.17;5.10;;;;;4.60;100408.00;;;;10405638;28;20218;-79
2024/03/24 21:27:11;;;;;;;8.33;4.37;;;;;4.60;100409.00;;;;10409053;28;20701;-79
2024/03/24 21:32:14;;;;;;;15.37;6.47;;;;;4.60;100417.00;;;;10397420;28;20313;-78
2024/03/24 21:37:16;;;;;;;10.80;4.77;;;;;4.60;100407.00;;;;10417205;28;20233;-79
2024/03/24 21:42:18;;;;;;;8.27;4.90;;;;;4.50;100412.00;;;;10395207;28;20230;-79
2024/03/24 21:47:20;;;;;;;14.90;5.10;;;;;4.30;100407.00;;;;10403469;28;20253;-79
2024/03/24 21:52:21;;;;;;;9.07;4.37;;;;;4.20;100402.00;;;;10401198;28;20234;-79
2024/03/24 21:57:22;;;;;;;8.77;4.50;;;;;4.10;100397.00;;;;10403089;28;20246;-79
2024/03/24 22:02:23;;;;;;;10.40;5.87;;;;;4.00;100400.00;;;;10415319;28;20305;-78
2024/03/24 22:07:26;;;;;;;33.93;22.43;;;;;3.90;100392.00;;;;10399331;28;20219;-79
2024/03/24 22:12:48;;;;;;;14.13;7.77;;;;;3.90;100397.00;;;;10413135;28;20237;-80
2024/03/24 22:17:50;;;;;;;14.13;11.07;;;;;3.90;100397.00;;;;10412589;28;20219;-80
2024/03/24 22:22:51;;;;;;;14.60;7.40;;;;;3.90;100395.00;;;;10409480;28;20229;-79
2024/03/24 22:27:52;;;;;;;19.83;8.27;;;;;3.90;100386.00;;;;10410307;28;20256;-80
2024/03/24 22:32:54;;;;;;;22.23;8.33;;;;;3.90;100392.00;;;;10406496;28;20225;-81
2024/03/24 22:37:55;;;;;;;15.40;8.53;;;;;3.90;100392.00;;;;10412570;28;20225;-80
2024/03/24 22:42:57;;;;;;;17.53;8.17;;;;;3.90;100395.00;;;;10396758;28;20218;-80
2024/03/24 22:47:58;;;;;;;16.97;8.90;;;;;3.90;100395.00;;;;10401617;28;20309;-80
2024/03/24 22:52:59;;;;;;;15.57;7.13;;;;;3.80;100392.00;;;;10412230;28;20306;-81
2024/03/24 22:58:00;;;;;;;14.63;7.77;;;;;3.70;100398.00;;;;10406540;28;20227;-83
2024/03/24 23:03:02;;;;;;;13.57;7.50;;;;;3.70;100390.00;;;;10420896;28;20242;-80
2024/03/24 23:08:04;;;;;;;12.30;8.00;;;;;3.50;100392.00;;;;10416089;28;20222;-80
2024/03/24 23:13:05;;;;;;;17.37;7.63;;;;;3.30;100387.00;;;;10427975;28;20305;-80
2024/03/24 23:18:06;;;;;;;11.57;7.97;;;;;3.20;100389.00;;;;10403731;28;20214;-81
2024/03/24 23:23:07;;;;;;;15.70;7.57;;;;;3.10;100392.00;;;;10397055;28;20313;-80
2024/03/24 23:28:09;;;;;;;15.60;8.27;;;;;3.00;100393.00;;;;10421971;28;20220;-80
2024/03/24 23:33:10;;;;;;;12.33;7.47;;;;;3.10;100382.00;;;;10410223;28;20222;-79
2024/03/24 23:38:11;;;;;;;13.00;8.27;;;;;3.20;100380.00;;;;10406298;28;20225;-79
2024/03/24 23:43:12;;;;;;;10.37;7.17;;;;;3.20;100370.00;;;;10399592;28;21030;-79
2024/03/24 23:48:13;;;;;;;11.40;7.50;;;;;3.20;100373.00;;;;10405437;28;20229;-80
2024/03/24 23:53:15;;;;;;;10.10;7.47;;;;;3.20;100364.00;;;;10409735;28;20222;-79
2024/03/24 23:58:16;;;;;;;15.20;7.50;;;;;3.10;100371.00;;;;10417412;28;20249;-79
